createdAt,value
2018-11-22T00:00:23.200Z,1.91
2018-11-22T00:03:12.599Z,1.89
2018-11-22T00:06:01.970Z,1.89
2018-11-22T00:08:50.790Z,1.86
2018-11-22T00:11:40.080Z,1.88
2018-11-22T00:14:29.152Z,1.91
2018-11-22T00:17:18.598Z,1.93
2018-11-22T00:20:08.406Z,1.94
2018-11-22T00:22:57.459Z,1.95
2018-11-22T00:25:46.266Z,1.96
2018-11-22T00:28:35.537Z,1.97
2018-11-22T00:31:24.977Z,2.02
2018-11-22T00:34:13.816Z,2.04
2018-11-22T00:37:03.218Z,2.02
2018-11-22T00:39:52.506Z,2.01
2018-11-22T00:42:42.240Z,2.02
2018-11-22T00:45:31.546Z,2.07
2018-11-22T00:48:20.599Z,2.08
2018-11-22T00:51:09.398Z,2.05
2018-11-22T00:53:58.890Z,2.06
2018-11-22T00:56:48.132Z,2.01
2018-11-22T00:59:36.912Z,1.92
2018-11-22T01:02:25.945Z,1.94
2018-11-22T01:05:16.309Z,1.98
2018-11-22T01:08:05.521Z,2.01
2018-11-22T01:10:54.371Z,1.99
2018-11-22T01:13:43.863Z,2.00
2018-11-22T01:16:32.884Z,1.99
2018-11-22T01:19:22.297Z,1.94
2018-11-22T01:22:11.324Z,1.92
2018-11-22T01:25:00.424Z,1.87
2018-11-22T01:27:49.942Z,1.93
2018-11-22T01:30:39.838Z,1.88
2018-11-22T01:33:28.881Z,1.69
2018-11-22T01:36:17.971Z,1.82
2018-11-22T01:39:09.138Z,1.79
2018-11-22T01:41:58.515Z,1.72
2018-11-22T01:44:47.893Z,1.76
2018-11-22T01:47:37.146Z,1.74
2018-11-22T01:50:26.339Z,1.67
2018-11-22T01:53:15.137Z,1.64
2018-11-22T01:56:04.421Z,1.69
2018-11-22T01:58:53.659Z,1.64
2018-11-22T02:01:42.716Z,1.61
2018-11-22T02:04:31.514Z,1.64
2018-11-22T02:07:20.929Z,1.73
2018-11-22T02:10:12.076Z,1.73
2018-11-22T02:13:01.708Z,1.72
2018-11-22T02:15:50.951Z,1.50
2018-11-22T02:18:40.238Z,1.42
2018-11-22T02:21:29.749Z,1.44
2018-11-22T02:24:18.556Z,1.48
2018-11-22T02:27:07.699Z,1.50
2018-11-22T02:29:56.903Z,1.52
2018-11-22T02:32:47.293Z,1.65
2018-11-22T02:35:36.714Z,1.60
2018-11-22T02:38:25.580Z,1.53
2018-11-22T02:41:14.414Z,1.52
2018-11-22T02:44:03.262Z,1.52
2018-11-22T02:46:52.062Z,1.50
2018-11-22T02:49:41.237Z,1.31
2018-11-22T02:52:30.073Z,1.33
2018-11-22T02:55:18.880Z,1.36
2018-11-22T02:58:07.981Z,1.26
2018-11-22T03:00:56.771Z,1.30
2018-11-22T03:03:45.589Z,1.19
2018-11-22T03:06:34.400Z,1.08
2018-11-22T03:09:23.865Z,1.19
2018-11-22T03:12:12.968Z,1.20
2018-11-22T03:15:02.460Z,1.21
2018-11-22T03:17:51.390Z,1.36
2018-11-22T03:20:40.625Z,1.43
2018-11-22T03:23:29.760Z,1.54
2018-11-22T03:26:18.868Z,1.53
2018-11-22T03:29:07.698Z,1.47
2018-11-22T03:31:56.820Z,1.49
2018-11-22T03:34:45.928Z,1.53
2018-11-22T03:37:54.293Z,1.32
2018-11-22T03:40:43.389Z,1.32
2018-11-22T03:43:32.737Z,1.31
2018-11-22T03:46:21.833Z,1.25
2018-11-22T03:49:11.009Z,1.20
2018-11-22T03:51:59.857Z,1.20
2018-11-22T03:54:48.985Z,1.20
2018-11-22T03:57:38.618Z,1.19
2018-11-22T04:00:28.987Z,1.19
2018-11-22T04:03:18.095Z,1.17
2018-11-22T04:06:07.033Z,1.23
2018-11-22T04:08:56.145Z,1.26
2018-11-22T04:11:45.186Z,1.32
2018-11-22T04:14:34.329Z,1.33
2018-11-22T04:17:23.672Z,1.44
2018-11-22T04:20:14.405Z,1.46
2018-11-22T04:23:03.222Z,1.37
2018-11-22T04:25:52.345Z,1.48
2018-11-22T04:28:41.212Z,1.48
2018-11-22T04:31:30.384Z,1.54
2018-11-22T04:34:19.213Z,1.54
2018-11-22T04:37:08.150Z,1.54
2018-11-22T04:39:57.258Z,1.64
2018-11-22T04:42:46.728Z,1.62
2018-11-22T04:45:35.682Z,1.63
2018-11-22T04:48:24.637Z,1.64
2018-11-22T04:51:32.815Z,1.68
2018-11-22T04:54:21.710Z,1.68
2018-11-22T04:57:10.509Z,1.68
2018-11-22T04:59:59.396Z,1.71
2018-11-22T05:02:48.342Z,1.74
2018-11-22T05:05:37.553Z,1.79
2018-11-22T05:08:26.633Z,1.76
2018-11-22T05:11:15.584Z,1.68
2018-11-22T05:14:04.818Z,1.61
2018-11-22T05:16:54.169Z,1.61
2018-11-22T05:19:43.033Z,1.68
2018-11-22T05:22:32.132Z,1.59
2018-11-22T05:25:21.003Z,1.61
2018-11-22T05:28:10.380Z,1.53
2018-11-22T05:31:19.305Z,1.43
2018-11-22T05:34:08.395Z,1.38
2018-11-22T05:36:57.276Z,1.34
2018-11-22T05:39:47.105Z,1.27
2018-11-22T05:42:35.890Z,1.33
2018-11-22T05:45:26.373Z,1.24
2018-11-22T05:48:16.235Z,1.07
2018-11-22T05:51:05.197Z,1.34
2018-11-22T05:53:54.193Z,1.34
2018-11-22T05:56:43.324Z,1.31
2018-11-22T05:59:32.640Z,1.29
2018-11-22T06:02:21.826Z,1.33
2018-11-22T06:05:12.019Z,1.38
2018-11-22T06:08:01.252Z,1.37
2018-11-22T06:10:50.404Z,1.44
2018-11-22T06:13:39.516Z,1.57
2018-11-22T06:16:48.240Z,1.73
2018-11-22T06:19:37.557Z,1.73
2018-11-22T06:22:27.010Z,1.74
2018-11-22T06:25:16.904Z,1.85
2018-11-22T06:28:25.400Z,1.92
2018-11-22T06:31:14.529Z,1.92
2018-11-22T06:34:03.614Z,1.92
2018-11-22T06:36:52.676Z,1.54
2018-11-22T06:39:42.099Z,1.18
2018-11-22T06:42:32.265Z,0.88
2018-11-22T12:17:18.409Z,7.30
2018-11-22T12:19:53.275Z,7.40
2018-11-22T12:22:27.990Z,7.50
2018-11-22T12:25:02.652Z,7.62
2018-11-22T12:27:37.684Z,7.60
2018-11-22T12:30:15.005Z,7.89
2018-11-22T12:32:55.392Z,7.49
2018-11-22T12:35:35.361Z,7.91
2018-11-22T12:38:15.142Z,7.48
2018-11-22T12:40:49.726Z,7.60
2018-11-22T12:43:24.590Z,7.61
2018-11-22T12:46:00.355Z,7.61
2018-11-22T12:48:34.853Z,7.43
2018-11-22T12:51:09.539Z,7.16
2018-11-22T12:53:44.126Z,6.86
2018-11-22T12:56:19.018Z,6.99
2018-11-22T12:58:53.632Z,6.98
2018-11-22T13:01:28.235Z,6.56
2018-11-22T13:04:02.845Z,6.39
2018-11-22T13:06:37.917Z,6.52
2018-11-22T13:09:12.433Z,6.42
2018-11-22T13:11:47.692Z,6.43
2018-11-22T13:14:22.190Z,6.56
2018-11-22T13:16:56.824Z,6.77
2018-11-22T13:19:31.344Z,7.16
2018-11-22T13:22:06.854Z,7.61
2018-11-22T13:24:41.398Z,7.70
2018-11-22T13:27:15.969Z,7.91
2018-11-22T13:29:50.798Z,8.00
2018-11-22T13:32:25.318Z,8.42
2018-11-22T13:34:59.902Z,8.36
2018-11-22T13:37:34.791Z,8.39
2018-11-22T13:40:10.754Z,8.30
2018-11-22T13:42:46.416Z,8.39
2018-11-22T13:45:23.621Z,8.58
2018-11-22T13:47:59.262Z,8.63
2018-11-22T13:50:35.649Z,8.55
2018-11-22T13:53:09.667Z,8.16
2018-11-22T13:55:44.271Z,7.96
2018-11-22T13:58:19.298Z,7.80
2018-11-22T14:00:54.025Z,7.65
2018-11-22T14:03:28.617Z,7.57
2018-11-22T14:06:03.473Z,7.52
2018-11-22T14:08:38.453Z,7.53
2018-11-22T14:11:15.242Z,7.34
2018-11-22T14:13:48.673Z,7.11
2018-11-22T14:16:23.329Z,7.08
2018-11-22T14:18:58.256Z,7.14
2018-11-22T14:21:33.228Z,7.23
2018-11-22T14:24:08.057Z,7.22
2018-11-22T14:26:42.568Z,7.12
2018-11-22T14:29:17.761Z,7.24
2018-11-22T14:31:52.769Z,7.19
2018-11-22T14:34:27.500Z,7.00
2018-11-22T14:37:02.092Z,6.97
2018-11-22T14:39:37.663Z,7.02
2018-11-22T14:42:12.775Z,6.68
2018-11-22T14:44:47.493Z,6.70
2018-11-22T14:47:21.986Z,6.73
2018-11-22T14:49:56.453Z,6.60
2018-11-22T14:52:31.401Z,6.70
2018-11-22T14:55:10.047Z,6.68
2018-11-22T14:57:44.749Z,6.43
2018-11-22T15:00:19.418Z,6.37
2018-11-22T15:02:53.913Z,6.31
2018-11-22T15:05:28.725Z,6.32
2018-11-22T15:08:03.608Z,6.21
2018-11-22T15:10:38.231Z,6.06
2018-11-22T15:13:12.981Z,5.93
2018-11-22T15:15:47.619Z,5.88
2018-11-22T15:18:22.245Z,5.71
2018-11-22T15:21:01.019Z,5.47
2018-11-22T15:23:31.257Z,5.35
2018-11-22T15:26:05.945Z,5.21
2018-11-22T15:28:40.502Z,5.06
2018-11-22T15:31:15.264Z,4.93
2018-11-22T15:33:49.710Z,4.77
2018-11-22T15:36:24.272Z,4.58
2018-11-22T15:38:59.357Z,4.47
2018-11-22T15:41:34.229Z,4.40
2018-11-22T15:44:09.191Z,4.31
2018-11-22T15:46:43.969Z,4.13
2018-11-22T15:49:18.757Z,4.04
2018-11-22T15:51:53.417Z,3.95
2018-11-22T15:54:28.187Z,3.86
2018-11-22T15:57:03.304Z,3.74
2018-11-22T15:59:38.062Z,3.68
2018-11-22T16:02:12.729Z,3.72
2018-11-22T16:04:48.050Z,3.64
2018-11-22T16:07:23.489Z,3.63
2018-11-22T16:09:58.371Z,3.53
2018-11-22T16:12:33.431Z,3.49
2018-11-22T16:15:14.897Z,3.49
2018-11-22T16:17:50.244Z,3.32
2018-11-22T16:20:24.989Z,3.35
2018-11-22T16:22:59.444Z,3.38
2018-11-22T16:25:34.638Z,3.43
2018-11-22T16:28:09.347Z,3.40
2018-11-22T16:30:44.830Z,3.33
2018-11-22T16:33:20.152Z,3.26
2018-11-22T16:35:56.448Z,3.17
2018-11-22T16:38:32.240Z,3.18
2018-11-22T16:41:06.177Z,3.15
2018-11-22T16:43:41.896Z,3.22
2018-11-22T16:46:18.266Z,3.12
2018-11-22T16:48:53.302Z,3.11
2018-11-22T16:51:28.249Z,3.06
2018-11-22T16:54:02.946Z,3.01
2018-11-22T16:56:37.815Z,3.05
2018-11-22T16:59:12.966Z,3.10
2018-11-22T17:01:48.145Z,3.12
2018-11-22T17:04:22.991Z,3.17
2018-11-22T17:06:58.277Z,3.21
2018-11-22T17:09:32.953Z,3.05
2018-11-22T17:12:08.386Z,3.13
2018-11-22T17:14:43.449Z,3.17
2018-11-22T17:17:18.795Z,3.29
2018-11-22T17:19:59.282Z,3.19
2018-11-22T17:22:34.529Z,3.13
2018-11-22T17:25:13.640Z,3.23
2018-11-22T17:27:49.730Z,3.16
2018-11-22T17:30:26.146Z,3.24
2018-11-22T17:33:01.069Z,3.19
2018-11-22T17:35:36.358Z,3.28
2018-11-22T17:38:12.131Z,3.24
2018-11-22T17:40:49.441Z,3.28
2018-11-22T17:43:24.836Z,3.09
2018-11-22T17:45:59.884Z,3.15
2018-11-22T17:48:34.669Z,3.24
2018-11-22T17:51:09.341Z,3.35
2018-11-22T17:53:43.822Z,3.19
2018-11-22T17:56:19.586Z,3.27
2018-11-22T17:58:54.227Z,3.33
2018-11-22T18:01:28.938Z,3.37
2018-11-22T18:04:03.659Z,3.39
2018-11-22T18:06:38.830Z,3.40
2018-11-22T18:09:13.966Z,3.32
2018-11-22T18:11:48.610Z,3.15
2018-11-22T18:14:23.507Z,3.19
2018-11-22T18:16:58.305Z,3.29
2018-11-22T18:19:33.663Z,3.35
2018-11-22T18:22:10.094Z,3.24
2018-11-22T18:24:47.594Z,3.33
2018-11-22T18:27:22.274Z,3.16
2018-11-22T18:29:56.818Z,3.12
2018-11-22T18:32:36.445Z,3.14
2018-11-22T18:35:12.709Z,3.15
2018-11-22T18:37:47.509Z,3.07
2018-11-22T18:40:23.838Z,3.02
2018-11-22T18:42:59.965Z,3.03
2018-11-22T18:45:37.463Z,3.04
2018-11-22T18:48:14.888Z,3.05
2018-11-22T18:50:49.703Z,3.08
2018-11-22T18:53:24.748Z,3.12
2018-11-22T18:55:59.429Z,3.13
2018-11-22T18:58:34.101Z,3.12
2018-11-22T19:01:10.149Z,3.07
2018-11-22T19:03:44.833Z,3.03
2018-11-22T19:06:21.753Z,3.05
2018-11-22T19:11:36.989Z,2.87
2018-11-22T19:14:30.875Z,2.95
2018-11-22T19:17:05.723Z,2.95
2018-11-22T19:19:40.310Z,2.94
2018-11-22T19:22:16.665Z,2.99
2018-11-22T19:24:51.838Z,3.00
2018-11-22T19:27:26.557Z,3.02
2018-11-22T19:30:01.719Z,3.03
2018-11-22T19:32:36.414Z,3.07
2018-11-22T19:35:12.203Z,3.14
2018-11-22T19:37:47.142Z,3.13
2018-11-22T19:40:24.661Z,3.03
2018-11-22T19:43:05.687Z,3.00
2018-11-22T19:45:43.723Z,2.88
2018-11-22T19:48:18.332Z,2.85
2018-11-22T19:50:52.966Z,2.87
2018-11-22T19:53:27.502Z,2.86
2018-11-22T19:56:02.449Z,2.81
2018-11-22T19:58:37.121Z,2.77
2018-11-22T20:01:11.811Z,2.75
2018-11-22T20:03:46.771Z,2.78
2018-11-22T20:06:21.240Z,2.72
2018-11-22T20:08:55.757Z,2.71
2018-11-22T20:11:30.517Z,2.66
2018-11-22T20:14:06.474Z,2.69
2018-11-22T20:16:41.253Z,2.55
2018-11-22T20:19:15.814Z,2.49
2018-11-22T20:21:50.266Z,2.45
2018-11-22T20:24:24.823Z,2.46
2018-11-22T20:26:59.346Z,2.46
2018-11-22T20:29:34.182Z,2.43
2018-11-22T20:32:08.801Z,2.35
2018-11-22T20:34:45.592Z,2.33
2018-11-22T20:37:20.493Z,2.36
2018-11-22T20:39:58.024Z,2.47
2018-11-22T20:42:32.622Z,2.35
2018-11-22T20:45:09.509Z,2.42
2018-11-22T20:47:45.008Z,2.30
2018-11-22T20:50:20.934Z,2.07
2018-11-22T20:52:55.647Z,2.08
2018-11-22T20:55:31.905Z,2.15
2018-11-22T20:58:07.399Z,2.19
2018-11-22T21:00:42.518Z,2.14
2018-11-22T21:03:17.213Z,2.15
2018-11-22T21:05:58.155Z,2.10
2018-11-22T21:08:33.222Z,2.04
2018-11-22T21:11:08.601Z,2.02
2018-11-22T21:13:43.203Z,2.04
2018-11-22T21:16:25.613Z,1.89
2018-11-22T21:19:00.374Z,1.86
2018-11-22T21:21:35.364Z,1.96
2018-11-22T21:24:10.102Z,1.78
2018-11-22T21:26:46.030Z,1.91
2018-11-22T21:29:20.706Z,1.95
2018-11-22T21:31:55.416Z,2.01
2018-11-22T21:34:30.150Z,1.92
2018-11-22T21:37:05.298Z,1.91
2018-11-22T21:39:39.754Z,1.90
2018-11-22T21:42:14.330Z,1.96
2018-11-22T21:44:52.309Z,2.00
2018-11-22T21:47:29.374Z,1.94
2018-11-22T21:50:08.745Z,1.92
2018-11-22T21:52:43.686Z,1.95
2018-11-22T21:55:21.274Z,1.97
2018-11-22T21:57:57.325Z,1.98
2018-11-22T22:00:38.315Z,2.05
2018-11-22T22:03:12.820Z,2.07
2018-11-22T22:05:47.502Z,2.09
2018-11-22T22:08:23.146Z,2.08
2018-11-22T22:10:58.093Z,2.19
2018-11-22T22:13:32.647Z,2.13
2018-11-22T22:16:07.634Z,1.99
2018-11-22T22:18:42.195Z,2.12
2018-11-22T22:21:16.622Z,2.04
2018-11-22T22:23:51.745Z,2.04
2018-11-22T22:26:26.591Z,2.00
2018-11-22T22:29:01.378Z,2.04
2018-11-22T22:31:35.854Z,2.10
2018-11-22T22:34:10.337Z,2.08
2018-11-22T22:36:45.169Z,2.07
2018-11-22T22:39:19.659Z,2.02
2018-11-22T22:41:54.566Z,2.05
2018-11-22T22:44:29.028Z,2.08
2018-11-22T22:47:03.605Z,2.09
2018-11-22T22:49:38.292Z,2.14
2018-11-22T22:52:13.454Z,2.13
2018-11-22T22:54:47.921Z,2.02
2018-11-22T22:57:22.787Z,2.03
2018-11-22T22:59:57.388Z,2.05
2018-11-22T23:02:32.192Z,2.03
2018-11-22T23:05:07.006Z,2.02
2018-11-22T23:07:42.090Z,1.93
2018-11-22T23:10:17.373Z,1.87
2018-11-22T23:12:52.899Z,1.73
2018-11-22T23:15:28.769Z,1.80
2018-11-22T23:18:03.780Z,1.79
2018-11-22T23:20:39.281Z,1.83
2018-11-22T23:23:14.008Z,1.84
2018-11-22T23:25:49.707Z,1.89
2018-11-22T23:28:24.159Z,1.85
2018-11-22T23:30:58.637Z,1.91
2018-11-22T23:33:33.463Z,1.92
2018-11-22T23:36:07.947Z,1.98
2018-11-22T23:38:42.685Z,1.98
2018-11-22T23:41:17.533Z,2.03
2018-11-22T23:43:52.156Z,1.95
2018-11-22T23:46:27.103Z,1.91
2018-11-22T23:49:01.685Z,1.78
2018-11-22T23:51:36.503Z,1.77
2018-11-22T23:54:11.175Z,1.84
2018-11-22T23:56:46.086Z,1.65
2018-11-22T23:59:20.886Z,1.68
